createdAt,value
2023-05-24T01:27:14.772Z,18.05
2023-05-24T01:29:43.669Z,17.98
2023-05-24T01:33:02.955Z,17.94
2023-05-24T01:37:25.506Z,17.90
2023-05-24T03:58:05.673Z,16.56
2023-05-24T04:00:33.977Z,16.53
2023-05-24T04:03:03.364Z,16.52
2023-05-24T04:05:31.935Z,16.50
2023-05-24T04:08:00.446Z,16.48
2023-05-24T04:10:28.601Z,16.51
2023-05-24T04:12:57.781Z,16.58
2023-05-24T04:15:26.532Z,16.58
2023-05-24T04:17:55.780Z,16.68
2023-05-24T04:20:27.806Z,16.69
2023-05-24T04:22:56.509Z,16.73
2023-05-24T04:25:25.002Z,16.77
2023-05-24T04:27:53.604Z,16.91
2023-05-24T04:30:22.267Z,17.05
2023-05-24T04:32:52.177Z,17.10
2023-05-24T04:35:20.366Z,17.13
2023-05-24T04:37:54.595Z,17.25
2023-05-24T04:40:25.988Z,17.32
2023-05-24T04:42:55.478Z,17.47
2023-05-24T04:45:25.709Z,17.60
2023-05-24T04:47:55.570Z,17.63
2023-05-24T04:50:24.347Z,17.68
2023-05-24T04:52:54.973Z,17.69
2023-05-24T04:55:23.104Z,17.62
2023-05-24T04:57:51.634Z,17.62
2023-05-24T05:00:20.605Z,17.56
2023-05-24T05:02:48.851Z,17.54
2023-05-24T05:05:17.292Z,17.44
2023-05-24T05:07:45.649Z,17.48
2023-05-24T05:10:17.003Z,17.55
2023-05-24T05:12:47.635Z,17.58
2023-05-24T05:15:22.731Z,17.57
2023-05-24T05:29:56.259Z,17.44
2023-05-24T05:32:24.743Z,17.44
2023-05-24T05:34:53.200Z,17.64
2023-05-24T05:37:24.351Z,17.75
2023-05-24T05:39:55.109Z,17.76
2023-05-24T05:42:23.148Z,17.69
2023-05-24T05:45:19.961Z,17.53
2023-05-24T06:00:10.812Z,17.62
2023-05-24T06:03:04.361Z,17.58
2023-05-24T06:05:38.431Z,17.48
2023-05-24T06:08:08.619Z,17.34
2023-05-24T06:10:41.528Z,17.35
2023-05-24T06:13:13.734Z,17.47
2023-05-24T06:15:48.632Z,17.44
2023-05-24T06:18:17.338Z,17.32
2023-05-24T06:20:51.676Z,17.43
2023-05-24T06:40:07.447Z,18.32
2023-05-24T06:42:38.441Z,18.45
2023-05-24T06:45:10.187Z,18.67
2023-05-24T06:48:01.850Z,18.93
2023-05-24T06:50:30.933Z,18.95
2023-05-24T06:52:59.200Z,18.91
2023-05-24T06:55:29.828Z,18.63
2023-05-24T06:57:57.918Z,18.64
2023-05-24T07:00:30.611Z,18.87
2023-05-24T07:02:58.580Z,18.87
2023-05-24T07:05:28.699Z,18.95
2023-05-24T07:07:56.826Z,18.87
2023-05-24T07:10:25.044Z,19.01
2023-05-24T07:12:55.594Z,19.29
2023-05-24T07:15:29.064Z,19.38
2023-05-24T07:17:57.072Z,19.31
2023-05-24T07:20:29.811Z,19.30
2023-05-24T07:22:58.396Z,19.47
2023-05-24T07:25:26.801Z,19.39
2023-05-24T07:27:58.472Z,19.29
2023-05-24T07:30:32.474Z,18.99
2023-05-24T07:36:34.883Z,18.86
2023-05-24T07:39:06.589Z,18.80
2023-05-24T07:41:37.289Z,18.69
2023-05-24T07:44:09.093Z,18.60
2023-05-24T07:46:42.362Z,18.65
2023-05-24T07:49:11.119Z,18.60
2023-05-24T07:51:39.154Z,18.44
2023-05-24T07:54:15.127Z,18.15
2023-05-24T07:56:44.583Z,18.09
2023-05-24T07:59:13.198Z,17.88
2023-05-24T08:01:42.624Z,17.81
2023-05-24T08:04:10.658Z,17.75
2023-05-24T08:06:40.773Z,17.70
2023-05-24T08:09:08.933Z,17.71
2023-05-24T08:11:37.030Z,17.77
2023-05-24T08:14:10.007Z,17.73
2023-05-24T08:16:40.546Z,17.64
2023-05-24T08:19:18.102Z,17.66
2023-05-24T08:21:46.015Z,17.75
2023-05-24T08:24:13.907Z,17.96
2023-05-24T08:26:45.226Z,18.16
2023-05-24T08:29:17.993Z,18.14
2023-05-24T08:31:54.056Z,18.13
2023-05-24T08:34:25.032Z,18.44
2023-05-24T08:36:56.038Z,18.57
2023-05-24T08:39:23.864Z,18.77
2023-05-24T08:42:07.906Z,18.81
2023-05-24T08:44:53.379Z,18.67
2023-05-24T08:47:24.125Z,18.74
2023-05-24T08:49:53.751Z,18.82
2023-05-24T08:52:22.899Z,18.67
2023-05-24T08:54:53.218Z,18.78
2023-05-24T08:57:22.309Z,18.90
2023-05-24T08:59:54.913Z,18.82
2023-05-24T09:02:23.736Z,18.73
2023-05-24T09:04:54.855Z,18.61
2023-05-24T09:07:26.462Z,18.62
2023-05-24T09:10:09.220Z,18.50
2023-05-24T09:12:45.450Z,18.49
2023-05-24T09:15:13.548Z,18.45
2023-05-24T09:17:41.856Z,18.52
2023-05-24T09:20:11.389Z,18.72
2023-05-24T09:22:43.132Z,18.68
2023-05-24T09:25:14.969Z,18.81
2023-05-24T09:27:45.557Z,18.86
2023-05-24T09:30:15.578Z,18.66
2023-05-24T09:32:59.600Z,18.63
2023-05-24T09:35:32.664Z,18.61
2023-05-24T09:38:00.900Z,18.72
2023-05-24T09:40:30.094Z,18.81
2023-05-24T09:43:05.914Z,18.82
2023-05-24T09:45:34.042Z,18.59
2023-05-24T09:48:10.597Z,18.52
2023-05-24T09:50:38.523Z,18.50
2023-05-24T09:53:06.759Z,18.56
2023-05-24T09:55:38.384Z,18.50
2023-05-24T09:58:09.072Z,18.42
2023-05-24T10:00:41.656Z,18.28
2023-05-24T10:03:15.476Z,18.27
2023-05-24T10:05:47.000Z,18.19
2023-05-24T10:08:18.747Z,18.11
2023-05-24T10:10:47.019Z,18.10
2023-05-24T10:13:17.744Z,18.12
2023-05-24T10:15:45.991Z,18.06
2023-05-24T10:18:14.624Z,18.03
2023-05-24T10:20:45.810Z,18.23
2023-05-24T10:23:19.809Z,18.17
2023-05-24T10:26:11.855Z,18.19
2023-05-24T10:28:46.950Z,18.26
2023-05-24T10:31:19.687Z,18.18
2023-05-24T10:33:48.993Z,18.09
2023-05-24T10:36:18.749Z,18.05
2023-05-24T10:38:50.577Z,17.97
2023-05-24T10:41:22.441Z,18.03
2023-05-24T10:44:04.825Z,17.76
2023-05-24T10:46:38.384Z,17.58
2023-05-24T10:49:07.660Z,17.60
2023-05-24T10:51:40.200Z,17.43
2023-05-24T10:54:16.504Z,17.56
2023-05-24T10:56:49.576Z,17.68
2023-05-24T10:59:37.589Z,17.66
2023-05-24T11:02:15.242Z,17.82
2023-05-24T11:04:46.957Z,17.86
2023-05-24T11:07:19.818Z,17.98
2023-05-24T11:09:53.032Z,18.10
2023-05-24T11:12:21.606Z,18.16
2023-05-24T11:14:52.446Z,18.33
2023-05-24T11:17:24.100Z,18.24
2023-05-24T11:19:54.721Z,18.31
2023-05-24T11:22:25.951Z,18.19
2023-05-24T11:24:57.581Z,18.23
2023-05-24T11:27:27.021Z,18.34
2023-05-24T11:29:58.504Z,18.54
2023-05-24T11:32:27.416Z,18.57
2023-05-24T11:34:57.958Z,18.57
2023-05-24T11:37:35.174Z,18.61
2023-05-24T11:40:16.376Z,18.49
2023-05-24T11:42:46.998Z,18.63
2023-05-24T11:45:15.831Z,18.48
2023-05-24T11:47:44.049Z,18.41
2023-05-24T11:50:16.797Z,18.41
2023-05-24T11:52:44.834Z,18.33
2023-05-24T11:55:16.572Z,18.29
2023-05-24T11:57:55.640Z,18.17
2023-05-24T12:00:28.448Z,18.23
2023-05-24T12:03:01.775Z,18.36
2023-05-24T12:05:32.612Z,18.30
2023-05-24T12:08:10.431Z,18.12
2023-05-24T12:10:41.988Z,18.21
2023-05-24T12:13:32.318Z,18.21
2023-05-24T12:16:00.519Z,18.08
2023-05-24T12:18:29.956Z,17.87
2023-05-24T12:20:58.840Z,17.85
2023-05-24T12:23:32.188Z,17.85
2023-05-24T12:26:01.485Z,17.79
2023-05-24T12:28:54.630Z,17.94
2023-05-24T12:55:17.471Z,17.54
2023-05-24T14:53:37.527Z,17.82
2023-05-24T14:56:08.504Z,17.75
2023-05-24T14:58:38.348Z,17.65
2023-05-24T15:01:07.848Z,17.52
2023-05-24T15:03:37.621Z,17.52
2023-05-24T15:06:04.898Z,17.46
2023-05-24T16:36:47.601Z,16.19
2023-05-24T16:39:14.357Z,16.08
2023-05-24T16:41:42.190Z,16.10
2023-05-24T16:44:18.044Z,16.16
2023-05-24T16:46:51.880Z,16.17
2023-05-24T16:49:25.867Z,16.17
2023-05-24T16:51:54.273Z,16.18
2023-05-24T19:32:43.285Z,15.09
2023-05-24T20:04:27.227Z,14.82
2023-05-24T20:48:26.778Z,14.92
2023-05-24T20:54:45.156Z,14.93
2023-05-24T20:57:52.477Z,14.90
2023-05-24T21:00:22.208Z,14.91
2023-05-24T21:06:14.110Z,14.93
2023-05-24T21:08:41.933Z,14.92
2023-05-24T21:11:08.978Z,14.93
2023-05-24T21:13:40.707Z,14.84
2023-05-24T21:16:10.866Z,14.80
2023-05-24T21:18:38.158Z,14.82
2023-05-24T21:21:05.909Z,14.83
2023-05-24T21:23:35.477Z,14.77
2023-05-24T21:26:02.476Z,14.76
2023-05-24T21:28:29.431Z,14.78
2023-05-24T21:30:56.429Z,14.77
2023-05-24T21:33:27.139Z,14.76
2023-05-24T21:35:55.519Z,14.73
2023-05-24T21:38:32.001Z,14.75
2023-05-24T21:40:59.083Z,14.74
2023-05-24T21:43:26.221Z,14.71
2023-05-24T21:45:53.017Z,14.70
2023-05-24T21:48:20.826Z,14.66
2023-05-24T21:50:48.117Z,14.65
2023-05-24T21:53:15.701Z,14.66
2023-05-24T21:55:45.308Z,14.63
2023-05-24T21:58:12.555Z,14.62
2023-05-24T22:00:39.471Z,14.60
2023-05-24T22:03:06.578Z,14.54
2023-05-24T22:05:33.577Z,14.55
2023-05-24T22:08:00.456Z,14.55
2023-05-24T22:10:27.223Z,14.56
2023-05-24T22:12:54.321Z,14.58
2023-05-24T22:15:21.393Z,14.56
2023-05-24T22:17:48.582Z,14.53
2023-05-24T22:20:15.759Z,14.49
2023-05-24T22:22:47.757Z,14.51
2023-05-24T22:25:18.720Z,14.49
2023-05-24T22:27:48.135Z,14.42
2023-05-24T22:30:15.464Z,14.44
2023-05-24T22:32:42.826Z,14.49
2023-05-24T22:35:09.728Z,14.46
2023-05-24T22:37:36.647Z,14.44
2023-05-24T22:40:04.470Z,14.44
2023-05-24T22:42:33.565Z,14.42
2023-05-24T22:45:00.467Z,14.40
2023-05-24T22:47:28.102Z,14.41
2023-05-24T22:50:18.558Z,14.44
2023-05-24T22:53:37.159Z,14.49
2023-05-24T22:56:37.599Z,14.36
2023-05-24T23:00:17.542Z,14.35
2023-05-24T23:04:18.831Z,14.33
2023-05-24T23:07:52.074Z,14.26
2023-05-24T23:11:31.130Z,14.25
2023-05-24T23:14:42.526Z,14.21
2023-05-24T23:18:10.540Z,14.21
